Time;durP1;ratioP1;P1;durP2;ratioP2;P2;SDS_P1;SDS_P2;PMS_P1;PMS_P2;Temp;Humidity;BMP_temperature;BMP_pressure;BME280_temperature;BME280_humidity;BME280_pressure;Samples;Min_cycle;Max_cycle;Signal;HPM_P1;HPM_P2
2022/08/08 00:00:31;;;;;;;16.38;13.20;;;;;;;;;;5053757;28;20025;-62
2022/08/08 00:03:03;;;;;;;15.48;13.85;;;;;;;;;;5034813;28;20578;-62
2022/08/08 00:05:38;;;;;;;15.05;13.52;;;;;;;;;;5052501;28;20320;-62
2022/08/08 00:08:04;;;;;;;15.82;14.18;;;;;;;;;;5052356;28;20057;-62
2022/08/08 00:10:52;;;;;;;15.27;13.47;;;;;;;;;;5053447;28;20037;-62
2022/08/08 00:13:24;;;;;;;18.20;14.50;;;;;;;;;;5053131;28;20799;-62
2022/08/08 00:16:03;;;;;;;16.50;14.38;;;;;;;;;;5053536;28;20391;-62
2022/08/08 00:18:36;;;;;;;15.32;13.73;;;;;;;;;;5036167;28;20025;-62
2022/08/08 00:21:03;;;;;;;17.98;14.27;;;;;;;;;;5036060;28;20028;-62
2022/08/08 00:23:35;;;;;;;19.08;14.05;;;;;;;;;;5053453;28;20029;-62
2022/08/08 00:26:04;;;;;;;17.05;13.88;;;;;;;;;;5034160;28;20026;-62
2022/08/08 00:28:40;;;;;;;15.30;13.80;;;;;;;;;;5036370;28;20022;-62
2022/08/08 00:31:12;;;;;;;15.45;13.85;;;;;;;;;;5053561;28;20036;-62
2022/08/08 00:33:42;;;;;;;16.05;14.27;;;;;;;;;;5035988;28;20040;-62
2022/08/08 00:36:13;;;;;;;15.55;13.43;;;;;;;;;;5053596;28;20075;-62
2022/08/08 00:38:39;;;;;;;13.93;12.45;;;;;;;;;;5035276;28;20075;-62
2022/08/08 00:41:08;;;;;;;16.03;12.47;;;;;;;;;;5035968;28;20060;-62
2022/08/08 00:44:01;;;;;;;14.52;13.02;;;;;;;;;;5052998;28;20390;-62
2022/08/08 00:46:46;;;;;;;13.90;12.45;;;;;;;;;;5017846;28;20071;-62
2022/08/08 00:49:31;;;;;;;14.63;12.00;;;;;;;;;;5053386;28;20078;-62
2022/08/08 00:52:22;;;;;;;13.45;12.13;;;;;;;;;;5053236;28;20033;-63
2022/08/08 00:54:48;;;;;;;29.20;12.50;;;;;;;;;;5052864;28;20033;-62
2022/08/08 00:57:25;;;;;;;15.27;12.77;;;;;;;;;;5053115;28;20035;-62
2022/08/08 00:59:54;;;;;;;14.07;12.65;;;;;;;;;;5052911;28;20064;-62
2022/08/08 01:02:24;;;;;;;13.85;12.38;;;;;;;;;;5053648;28;20108;-62
2022/08/08 01:04:50;;;;;;;12.95;11.65;;;;;;;;;;5053095;28;20086;-62
2022/08/08 01:07:16;;;;;;;14.17;12.67;;;;;;;;;;5053097;28;20438;-63
2022/08/08 01:09:54;;;;;;;14.85;13.05;;;;;;;;;;5052960;28;20032;-62
2022/08/08 01:12:40;;;;;;;26.77;14.18;;;;;;;;;;5052685;28;20483;-62
2022/08/08 01:15:30;;;;;;;21.15;11.43;;;;;;;;;;5034797;28;20103;-63
2022/08/08 01:18:15;;;;;;;13.70;11.98;;;;;;;;;;5053078;28;20039;-62
2022/08/08 01:20:44;;;;;;;15.35;12.73;;;;;;;;;;5051457;28;20495;-62
2022/08/08 01:23:39;;;;;;;15.07;13.25;;;;;;;;;;5034888;28;20052;-62
2022/08/08 01:26:14;;;;;;;17.13;13.60;;;;;;;;;;5052730;28;20491;-62
2022/08/08 01:28:52;;;;;;;20.92;15.27;;;;;;;;;;5051910;28;20112;-62
2022/08/08 01:31:18;;;;;;;18.80;15.13;;;;;;;;;;5052653;28;20033;-62
2022/08/08 01:33:47;;;;;;;16.70;15.10;;;;;;;;;;5052311;28;20040;-62
2022/08/08 01:36:25;;;;;;;16.25;14.65;;;;;;;;;;5052410;28;20267;-63
2022/08/08 01:38:54;;;;;;;17.27;15.57;;;;;;;;;;5051990;28;20372;-62
2022/08/08 01:41:20;;;;;;;15.43;13.82;;;;;;;;;;5051949;28;20032;-62
2022/08/08 01:43:52;;;;;;;17.47;15.67;;;;;;;;;;5052344;28;20436;-62
2022/08/08 01:46:24;;;;;;;17.95;16.02;;;;;;;;;;5052268;28;20274;-62
2022/08/08 01:49:05;;;;;;;22.15;16.00;;;;;;;;;;5051862;28;20029;-62
2022/08/08 01:51:38;;;;;;;15.95;14.35;;;;;;;;;;5052242;28;20040;-62
2022/08/08 01:54:14;;;;;;;17.52;14.60;;;;;;;;;;5034303;28;20156;-62
2022/08/08 01:56:40;;;;;;;15.38;13.80;;;;;;;;;;5033948;28;20029;-62
2022/08/08 01:59:29;;;;;;;20.17;14.57;;;;;;;;;;5034282;28;20399;-62
2022/08/08 02:02:35;;;;;;;17.88;14.43;;;;;;;;;;5042747;28;20045;-62
2022/08/08 02:05:07;;;;;;;16.88;15.10;;;;;;;;;;4990334;28;20536;-62
2022/08/08 02:07:51;;;;;;;16.42;14.70;;;;;;;;;;4990226;28;20465;-62
2022/08/08 02:10:32;;;;;;;18.13;15.15;;;;;;;;;;5028942;28;20037;-62
2022/08/08 02:13:13;;;;;;;15.60;13.20;;;;;;;;;;5031933;28;20372;-62
2022/08/08 02:15:51;;;;;;;16.38;13.23;;;;;;;;;;5051955;28;20032;-62
2022/08/08 02:18:17;;;;;;;15.55;13.27;;;;;;;;;;5051589;28;20025;-62
2022/08/08 02:24:18;;;;;;;13.95;12.45;;;;;;;;;;5051549;28;20063;-62
2022/08/08 02:26:54;;;;;;;15.25;11.98;;;;;;;;;;5048593;28;20044;-62
2022/08/08 02:29:26;;;;;;;15.48;11.43;;;;;;;;;;5051162;28;20082;-62
2022/08/08 02:32:12;;;;;;;15.95;12.20;;;;;;;;;;5050924;28;20103;-62
2022/08/08 02:34:38;;;;;;;12.93;11.60;;;;;;;;;;5050997;28;20024;-62
2022/08/08 02:37:04;;;;;;;14.02;11.82;;;;;;;;;;5051360;28;20035;-62
2022/08/08 02:39:48;;;;;;;13.30;11.97;;;;;;;;;;5051291;28;20112;-62
2022/08/08 02:42:24;;;;;;;13.27;11.18;;;;;;;;;;5051362;28;20048;-62
2022/08/08 02:44:56;;;;;;;13.18;11.88;;;;;;;;;;5042960;28;20028;-61
2022/08/08 02:47:22;;;;;;;14.48;11.77;;;;;;;;;;5051328;28;20033;-62
2022/08/08 02:50:03;;;;;;;12.47;11.17;;;;;;;;;;5051112;28;20491;-62
2022/08/08 02:52:35;;;;;;;12.35;11.15;;;;;;;;;;5033261;28;20029;-62
2022/08/08 02:55:01;;;;;;;15.38;9.18;;;;;;;;;;5050270;28;20037;-62
2022/08/08 02:57:30;;;;;;;12.07;10.82;;;;;;;;;;5050566;28;20057;-62
2022/08/08 03:00:16;;;;;;;14.48;10.43;;;;;;;;;;5050627;28;20104;-62
2022/08/08 03:02:59;;;;;;;10.50;9.50;;;;;;;;;;5054692;28;20265;-62
2022/08/08 03:05:28;;;;;;;12.35;9.55;;;;;;;;;;5054890;28;20033;-62
2022/08/08 03:08:13;;;;;;;13.35;10.80;;;;;;;;;;5054385;28;20040;-62
2022/08/08 03:10:57;;;;;;;12.02;10.75;;;;;;;;;;5055496;28;20044;-61
2022/08/08 03:13:45;;;;;;;12.40;10.80;;;;;;;;;;5054492;28;20025;-61
2022/08/08 03:16:20;;;;;;;12.55;11.25;;;;;;;;;;5022776;28;20116;-62
2022/08/08 03:18:46;;;;;;;11.57;10.32;;;;;;;;;;5036228;28;20029;-62
2022/08/08 03:21:12;;;;;;;12.00;10.73;;;;;;;;;;5055315;28;20177;-62
2022/08/08 03:23:38;;;;;;;15.23;11.27;;;;;;;;;;5055205;28;20208;-62
2022/08/08 03:26:04;;;;;;;13.17;10.70;;;;;;;;;;5054879;28;20104;-62
2022/08/08 03:28:31;;;;;;;13.77;11.30;;;;;;;;;;5055072;28;20251;-62
2022/08/08 03:30:57;;;;;;;;;;;;;;;;;;5055366;28;20163;-62
2022/08/08 03:33:24;;;;;;;16.88;12.23;;;;;;;;;;5054779;28;19995;-62
2022/08/08 03:35:50;;;;;;;;;;;;;;;;;;5055512;28;20108;-61
2022/08/08 03:38:19;;;;;;;14.07;11.90;;;;;;;;;;5055000;28;20401;-61
2022/08/08 03:40:50;;;;;;;12.45;10.88;;;;;;;;;;5054443;28;20507;-61
2022/08/08 03:43:16;;;;;;;14.93;11.50;;;;;;;;;;5054278;28;20017;-61
2022/08/08 03:45:42;;;;;;;13.23;11.65;;;;;;;;;;5054202;28;20047;-61
2022/08/08 03:48:09;;;;;;;11.60;10.40;;;;;;;;;;5054619;28;20035;-62
2022/08/08 03:50:36;;;;;;;11.85;10.60;;;;;;;;;;5054688;28;20029;-62
2022/08/08 03:53:13;;;;;;;15.48;10.55;;;;;;;;;;5054522;28;20074;-62
2022/08/08 03:55:41;;;;;;;12.98;10.60;;;;;;;;;;5054719;28;20560;-62
2022/08/08 03:58:07;;;;;;;13.10;10.02;;;;;;;;;;5054441;28;20032;-62
2022/08/08 04:00:34;;;;;;;12.30;10.60;;;;;;;;;;5052461;28;20037;-62
2022/08/08 04:03:01;;;;;;;12.18;9.73;;;;;;;;;;5044440;28;20026;-62
2022/08/08 04:05:28;;;;;;;13.57;11.23;;;;;;;;;;5034522;28;20032;-62
2022/08/08 04:07:54;;;;;;;;;;;;;;;;;;5033988;28;20029;-62
2022/08/08 04:10:20;;;;;;;11.18;9.85;;;;;;;;;;5015610;28;19920;-61
2022/08/08 04:12:47;;;;;;;10.25;9.23;;;;;;;;;;5014785;28;20029;-62
2022/08/08 04:15:13;;;;;;;12.80;10.07;;;;;;;;;;5033136;28;20049;-62
2022/08/08 04:17:39;;;;;;;10.82;9.75;;;;;;;;;;5033039;28;20025;-61
2022/08/08 04:20:05;;;;;;;13.03;8.87;;;;;;;;;;5015301;28;20032;-62
2022/08/08 04:22:31;;;;;;;12.63;9.20;;;;;;;;;;5032893;28;20260;-61
2022/08/08 04:24:58;;;;;;;18.15;9.20;;;;;;;;;;5033042;28;20025;-61
2022/08/08 04:27:24;;;;;;;12.50;8.13;;;;;;;;;;5032872;28;20454;-62
2022/08/08 04:29:50;;;;;;;11.02;9.15;;;;;;;;;;5032913;28;20075;-62
2022/08/08 04:32:17;;;;;;;10.60;9.60;;;;;;;;;;5032910;28;20032;-61
2022/08/08 04:34:43;;;;;;;11.45;9.30;;;;;;;;;;5032783;28;20492;-62
2022/08/08 04:37:10;;;;;;;11.68;9.02;;;;;;;;;;5032788;28;20029;-62
2022/08/08 04:39:36;;;;;;;10.15;9.07;;;;;;;;;;5015091;28;20026;-62
2022/08/08 04:42:02;;;;;;;9.90;8.93;;;;;;;;;;5032616;28;20075;-62
2022/08/08 04:44:28;;;;;;;9.65;8.68;;;;;;;;;;5015061;28;20048;-58
2022/08/08 04:46:54;;;;;;;11.30;9.50;;;;;;;;;;5032637;28;20096;-58
2022/08/08 04:49:20;;;;;;;11.30;8.93;;;;;;;;;;5032661;28;20021;-58
2022/08/08 04:51:46;;;;;;;12.23;8.33;;;;;;;;;;5032536;28;20033;-57
2022/08/08 04:54:12;;;;;;;9.87;7.50;;;;;;;;;;5032639;28;20025;-57
2022/08/08 04:56:38;;;;;;;11.47;7.80;;;;;;;;;;5032479;28;20026;-57
2022/08/08 04:59:04;;;;;;;11.27;7.53;;;;;;;;;;5014839;28;20036;-57
2022/08/08 05:01:30;;;;;;;9.90;7.23;;;;;;;;;;5032411;28;20272;-58
2022/08/08 05:03:56;;;;;;;12.07;6.37;;;;;;;;;;5032428;28;20264;-58
2022/08/08 05:06:22;;;;;;;7.77;6.10;;;;;;;;;;5032511;28;20236;-57
2022/08/08 05:08:49;;;;;;;8.70;6.20;;;;;;;;;;5049935;23;1137073;-47
2022/08/08 05:11:17;;;;;;;9.40;6.38;;;;;;;;;;5073045;28;20028;-54
2022/08/08 05:13:43;;;;;;;7.68;6.47;;;;;;;;;;5072972;28;20029;-53
2022/08/08 05:16:10;;;;;;;7.43;6.10;;;;;;;;;;5073179;28;20032;-53
2022/08/08 05:18:36;;;;;;;10.57;6.25;;;;;;;;;;5073046;28;20273;-54
2022/08/08 05:21:03;;;;;;;11.15;5.28;;;;;;;;;;5073016;28;20064;-53
2022/08/08 05:23:29;;;;;;;5.75;5.13;;;;;;;;;;5072841;28;20048;-53
2022/08/08 05:25:56;;;;;;;7.72;5.63;;;;;;;;;;5072196;28;20021;-53
2022/08/08 05:28:22;;;;;;;5.00;4.50;;;;;;;;;;5072859;28;20025;-53
2022/08/08 05:30:48;;;;;;;4.63;4.20;;;;;;;;;;5072883;28;20028;-55
2022/08/08 05:33:15;;;;;;;6.97;4.40;;;;;;;;;;5072568;28;20490;-54
2022/08/08 05:35:45;;;;;;;6.15;4.10;;;;;;;;;;5072764;28;20032;-56
2022/08/08 05:38:13;;;;;;;6.18;4.53;;;;;;;;;;5072452;28;20613;-57
2022/08/08 05:40:45;;;;;;;6.35;4.07;;;;;;;;;;5072501;28;20020;-56
2022/08/08 05:43:15;;;;;;;5.82;4.43;;;;;;;;;;5072478;28;20103;-52
2022/08/08 05:45:41;;;;;;;10.85;4.38;;;;;;;;;;5072400;28;20036;-52
2022/08/08 05:48:07;;;;;;;4.97;4.43;;;;;;;;;;5072482;28;20043;-50
2022/08/08 05:50:34;;;;;;;6.78;4.45;;;;;;;;;;5072634;28;20025;-54
2022/08/08 05:53:00;;;;;;;8.43;4.10;;;;;;;;;;5072260;28;20494;-52
2022/08/08 05:55:28;;;;;;;5.20;4.67;;;;;;;;;;5072447;28;20021;-52
2022/08/08 05:57:56;;;;;;;5.15;4.68;;;;;;;;;;5072298;28;20620;-52
2022/08/08 06:00:24;;;;;;;6.28;4.05;;;;;;;;;;5072091;28;20064;-53
2022/08/08 06:03:09;;;;;;;6.38;4.30;;;;;;;;;;5072147;28;20521;-52
2022/08/08 06:05:40;;;;;;;7.47;4.22;;;;;;;;;;5072144;28;20025;-53
2022/08/08 06:08:06;;;;;;;5.50;4.00;;;;;;;;;;5072083;28;20024;-51
2022/08/08 06:10:32;;;;;;;;;;;;;;;;;;5072585;28;20119;-53
2022/08/08 06:12:59;;;;;;;7.88;4.40;;;;;;;;;;5071867;28;19935;-50
2022/08/08 06:15:26;;;;;;;6.68;4.80;;;;;;;;;;5071983;28;20032;-54
2022/08/08 06:17:53;;;;;;;6.00;4.32;;;;;;;;;;5071915;28;20052;-54
2022/08/08 06:20:19;;;;;;;11.90;4.97;;;;;;;;;;5071877;28;20098;-52
2022/08/08 06:22:45;;;;;;;6.60;4.30;;;;;;;;;;5071804;28;20277;-51
2022/08/08 06:25:11;;;;;;;5.13;4.67;;;;;;;;;;5071963;28;20029;-53
2022/08/08 06:27:45;;;;;;;20.17;5.63;;;;;;;;;;5071742;28;20304;-54
2022/08/08 06:30:12;;;;;;;7.60;5.07;;;;;;;;;;5071700;28;20036;-52
2022/08/08 06:32:37;;;;;;;;;;;;;;;;;;5053994;28;20029;-55
2022/08/08 06:35:08;;;;;;;5.10;4.60;;;;;;;;;;5071753;28;19930;-53
2022/08/08 06:37:36;;;;;;;4.53;3.90;;;;;;;;;;5071554;28;20032;-55
2022/08/08 06:40:04;;;;;;;8.38;4.22;;;;;;;;;;5071492;28;20020;-56
2022/08/08 06:42:34;;;;;;;6.60;5.20;;;;;;;;;;5071483;28;20482;-54
2022/08/08 06:45:02;;;;;;;7.00;4.47;;;;;;;;;;5071588;28;20227;-57
2022/08/08 06:47:28;;;;;;;7.18;4.63;;;;;;;;;;5071549;28;20025;-57
2022/08/08 06:49:54;;;;;;;7.13;4.40;;;;;;;;;;5071534;28;20048;-57
2022/08/08 06:52:20;;;;;;;5.47;4.00;;;;;;;;;;5071552;28;20024;-57
2022/08/08 06:54:48;;;;;;;7.93;4.65;;;;;;;;;;5071365;28;20028;-57
2022/08/08 06:57:14;;;;;;;8.48;5.30;;;;;;;;;;5071428;28;20020;-55
2022/08/08 06:59:40;;;;;;;5.13;4.63;;;;;;;;;;5071467;28;20100;-55
2022/08/08 07:02:06;;;;;;;6.47;4.50;;;;;;;;;;5071542;28;20278;-54
2022/08/08 07:04:38;;;;;;;6.32;4.80;;;;;;;;;;5071421;28;20339;-54
2022/08/08 07:07:08;;;;;;;8.95;5.28;;;;;;;;;;5071218;28;20482;-57
2022/08/08 07:09:37;;;;;;;7.43;5.28;;;;;;;;;;5071667;28;20056;-57
2022/08/08 07:12:06;;;;;;;10.57;5.35;;;;;;;;;;5071266;28;20032;-55
2022/08/08 07:14:56;;;;;;;8.38;4.60;;;;;;;;;;5071242;28;20074;-56
2022/08/08 07:17:25;;;;;;;7.13;5.25;;;;;;;;;;5060681;28;20040;-54
2022/08/08 07:20:05;;;;;;;13.35;5.15;;;;;;;;;;5071271;28;20036;-55
2022/08/08 07:22:51;;;;;;;8.10;4.95;;;;;;;;;;5071239;28;20049;-55
2022/08/08 07:25:18;;;;;;;11.90;5.13;;;;;;;;;;5030699;28;20162;-54
2022/08/08 07:27:49;;;;;;;9.82;5.43;;;;;;;;;;5071175;28;20040;-55
2022/08/08 07:30:15;;;;;;;5.97;5.07;;;;;;;;;;5071211;28;20433;-56
2022/08/08 07:32:42;;;;;;;11.10;5.00;;;;;;;;;;5070960;28;20035;-55
2022/08/08 07:35:09;;;;;;;7.18;4.95;;;;;;;;;;5071194;28;20092;-55
2022/08/08 07:37:35;;;;;;;5.28;4.43;;;;;;;;;;5071158;28;20036;-55
2022/08/08 07:40:01;;;;;;;8.95;4.60;;;;;;;;;;5071001;28;20047;-58
2022/08/08 07:42:29;;;;;;;6.25;4.65;;;;;;;;;;5070910;28;20168;-58
2022/08/08 07:44:55;;;;;;;10.10;5.22;;;;;;;;;;5071138;28;20368;-58
2022/08/08 07:47:21;;;;;;;6.15;4.63;;;;;;;;;;5070909;28;20032;-56
2022/08/08 07:49:47;;;;;;;9.32;4.85;;;;;;;;;;5074757;28;20488;-58
2022/08/08 07:52:15;;;;;;;8.38;4.68;;;;;;;;;;5074721;28;20034;-58
2022/08/08 07:54:44;;;;;;;6.30;4.60;;;;;;;;;;5056615;28;20417;-55
2022/08/08 07:57:16;;;;;;;6.88;4.60;;;;;;;;;;5074484;28;20051;-58
2022/08/08 07:59:50;;;;;;;10.13;4.80;;;;;;;;;;5074727;28;20032;-56
2022/08/08 08:02:20;;;;;;;12.50;4.80;;;;;;;;;;5074500;28;20119;-57
2022/08/08 08:04:48;;;;;;;10.80;4.78;;;;;;;;;;5056466;28;20016;-57
2022/08/08 08:07:14;;;;;;;10.63;4.85;;;;;;;;;;5074247;28;20440;-57
2022/08/08 08:09:41;;;;;;;7.97;4.40;;;;;;;;;;5074327;28;20024;-58
2022/08/08 08:12:10;;;;;;;10.45;4.53;;;;;;;;;;5074309;28;20047;-58
2022/08/08 08:14:46;;;;;;;12.27;5.07;;;;;;;;;;5056164;28;20032;-59
2022/08/08 08:17:15;;;;;;;11.10;4.82;;;;;;;;;;5074236;28;20028;-58
2022/08/08 08:19:42;;;;;;;8.52;5.32;;;;;;;;;;5074668;28;20036;-58
2022/08/08 08:22:08;;;;;;;7.47;5.10;;;;;;;;;;5074025;28;20024;-57
2022/08/08 08:24:34;;;;;;;7.50;5.25;;;;;;;;;;5074010;28;20021;-58
2022/08/08 08:27:00;;;;;;;7.80;5.03;;;;;;;;;;5074114;28;20044;-58
2022/08/08 08:29:27;;;;;;;5.35;4.82;;;;;;;;;;5074105;28;20017;-59
2022/08/08 08:31:53;;;;;;;9.88;5.22;;;;;;;;;;5074001;28;20048;-57
2022/08/08 08:34:19;;;;;;;8.82;5.40;;;;;;;;;;5074406;28;20048;-57
2022/08/08 08:36:45;;;;;;;6.53;5.78;;;;;;;;;;5073917;28;20054;-57
2022/08/08 08:39:11;;;;;;;13.77;6.00;;;;;;;;;;5073784;28;20028;-58
2022/08/08 08:41:38;;;;;;;7.60;5.63;;;;;;;;;;5073663;28;20028;-59
2022/08/08 08:44:04;;;;;;;6.60;5.38;;;;;;;;;;5073682;28;20053;-57
2022/08/08 08:46:30;;;;;;;10.82;5.68;;;;;;;;;;5056004;28;20032;-58
2022/08/08 08:48:56;;;;;;;6.20;5.60;;;;;;;;;;5073661;28;20028;-59
2022/08/08 08:51:25;;;;;;;6.78;6.18;;;;;;;;;;5055671;28;20397;-58
2022/08/08 08:53:52;;;;;;;9.98;6.78;;;;;;;;;;5073681;28;20033;-58
2022/08/08 08:56:19;;;;;;;8.77;6.03;;;;;;;;;;5073498;28;20042;-58
2022/08/08 08:58:47;;;;;;;18.00;6.90;;;;;;;;;;5055279;28;20024;-58
2022/08/08 09:01:14;;;;;;;9.23;6.63;;;;;;;;;;5073439;28;20035;-58
2022/08/08 09:03:41;;;;;;;8.40;6.30;;;;;;;;;;5055550;28;20433;-56
2022/08/08 09:06:12;;;;;;;11.40;6.57;;;;;;;;;;5073289;28;20021;-59
2022/08/08 09:08:39;;;;;;;390.23;49.45;;;;;;;;;;5072894;28;20103;-56
2022/08/08 09:11:08;;;;;;;633.60;73.15;;;;;;;;;;5073159;28;20390;-57
2022/08/08 09:13:36;;;;;;;32.35;9.05;;;;;;;;;;5073074;28;20078;-56
2022/08/08 09:16:03;;;;;;;11.32;6.65;;;;;;;;;;5073187;28;20066;-57
2022/08/08 09:18:32;;;;;;;10.15;6.60;;;;;;;;;;5072915;28;20490;-58
2022/08/08 09:20:58;;;;;;;8.27;6.45;;;;;;;;;;5073065;28;20029;-58
2022/08/08 09:23:25;;;;;;;6.63;5.95;;;;;;;;;;5073011;28;20020;-58
2022/08/08 09:25:54;;;;;;;14.95;7.47;;;;;;;;;;5055074;28;20308;-56
2022/08/08 09:28:22;;;;;;;11.18;7.40;;;;;;;;;;5072905;28;20506;-56
2022/08/08 09:30:51;;;;;;;387.85;47.53;;;;;;;;;;5072791;28;20394;-58
2022/08/08 09:33:18;;;;;;;7.95;4.93;;;;;;;;;;5072657;28;20103;-57
2022/08/08 09:35:45;;;;;;;5.75;4.43;;;;;;;;;;5072801;28;20036;-56
2022/08/08 09:38:15;;;;;;;10.57;5.13;;;;;;;;;;5072520;28;20070;-57
2022/08/08 09:40:41;;;;;;;12.90;6.97;;;;;;;;;;5072553;28;20039;-57
2022/08/08 09:43:13;;;;;;;20.75;6.80;;;;;;;;;;5072455;28;20028;-58
2022/08/08 09:45:40;;;;;;;8.10;5.40;;;;;;;;;;5072505;28;20025;-58
2022/08/08 09:48:08;;;;;;;10.00;6.05;;;;;;;;;;5072420;28;20027;-56
2022/08/08 09:50:35;;;;;;;98.10;12.95;;;;;;;;;;5072421;28;20504;-57
2022/08/08 09:53:02;;;;;;;9.75;6.28;;;;;;;;;;5072409;28;20094;-56
2022/08/08 09:55:29;;;;;;;8.68;6.13;;;;;;;;;;5072325;28;20024;-58
2022/08/08 09:58:21;;;;;;;14.43;5.32;;;;;;;;;;5072214;28;20025;-57
2022/08/08 10:00:48;;;;;;;8.75;5.30;;;;;;;;;;5068427;28;20040;-58
2022/08/08 10:03:17;;;;;;;7.90;5.97;;;;;;;;;;5072076;28;20017;-56
2022/08/08 10:05:44;;;;;;;1546.28;161.90;;;;;;;;;;5072110;28;20020;-58
2022/08/08 10:08:09;;;;;;;;;;;;;;;;;;5072299;28;20414;-57
2022/08/08 10:10:37;;;;;;;27.25;7.22;;;;;;;;;;5053535;28;19904;-57
2022/08/08 10:13:23;;;;;;;68.82;11.32;;;;;;;;;;5071971;28;20032;-58
2022/08/08 10:15:51;;;;;;;15.23;5.78;;;;;;;;;;5072065;28;20062;-58
2022/08/08 10:18:27;;;;;;;6.60;5.25;;;;;;;;;;5071914;28;20440;-57
2022/08/08 10:20:58;;;;;;;8.25;5.40;;;;;;;;;;5071741;28;20107;-58
2022/08/08 10:23:38;;;;;;;6.85;4.85;;;;;;;;;;5071816;28;20400;-58
2022/08/08 10:26:05;;;;;;;8.70;5.30;;;;;;;;;;5071897;28;20040;-57
2022/08/08 10:28:31;;;;;;;9.50;5.18;;;;;;;;;;5071697;28;20028;-57
2022/08/08 10:30:57;;;;;;;;;;;;;;;;;;5072223;28;20028;-58
2022/08/08 10:33:29;;;;;;;11.40;5.95;;;;;;;;;;5053653;28;19919;-58
2022/08/08 10:35:55;;;;;;;11.35;6.30;;;;;;;;;;5071814;28;20035;-57
2022/08/08 10:38:24;;;;;;;10.07;5.18;;;;;;;;;;5071769;28;20032;-56
2022/08/08 10:40:50;;;;;;;6.35;5.28;;;;;;;;;;5053572;28;20035;-57
2022/08/08 10:43:17;;;;;;;9.02;5.38;;;;;;;;;;5071951;28;20055;-58
2022/08/08 10:45:43;;;;;;;7.75;4.85;;;;;;;;;;5070897;28;20078;-56
2022/08/08 10:48:11;;;;;;;10.88;5.15;;;;;;;;;;5070178;28;20025;-57
2022/08/08 10:50:38;;;;;;;9.85;4.85;;;;;;;;;;5071187;28;20039;-56
2022/08/08 10:53:08;;;;;;;11.52;4.80;;;;;;;;;;5069915;28;20099;-56
2022/08/08 10:55:36;;;;;;;11.40;5.82;;;;;;;;;;5070610;28;20039;-57
2022/08/08 10:58:07;;;;;;;6.10;4.93;;;;;;;;;;5071171;28;20021;-58
2022/08/08 11:00:33;;;;;;;9.50;5.97;;;;;;;;;;5052875;28;20547;-57
2022/08/08 11:03:10;;;;;;;8.25;5.15;;;;;;;;;;5071486;28;20370;-54
2022/08/08 11:05:48;;;;;;;13.48;5.45;;;;;;;;;;5071235;28;20111;-57
2022/08/08 11:08:27;;;;;;;10.45;6.22;;;;;;;;;;5070725;28;20040;-58
2022/08/08 11:11:06;;;;;;;6.70;5.95;;;;;;;;;;5071147;28;20032;-57
2022/08/08 11:13:40;;;;;;;11.90;5.88;;;;;;;;;;5069564;28;20032;-57
2022/08/08 11:16:06;;;;;;;8.18;6.13;;;;;;;;;;5066924;28;20581;-57
2022/08/08 11:18:32;;;;;;;;;;;;;;;;;;5071570;28;20025;-56
2022/08/08 11:21:00;;;;;;;8.27;5.00;;;;;;;;;;5071244;28;19908;-57
2022/08/08 11:23:30;;;;;;;11.48;6.28;;;;;;;;;;5036719;28;20502;-57
2022/08/08 11:25:56;;;;;;;11.10;5.60;;;;;;;;;;5055324;28;20066;-57
2022/08/08 11:28:26;;;;;;;7.45;5.47;;;;;;;;;;5064158;28;20032;-55
2022/08/08 11:30:53;;;;;;;7.25;5.07;;;;;;;;;;5057113;28;20029;-58
2022/08/08 11:33:23;;;;;;;8.65;4.35;;;;;;;;;;5074641;28;20043;-57
2022/08/08 11:35:49;;;;;;;7.68;4.47;;;;;;;;;;5074695;28;20036;-58
2022/08/08 11:38:15;;;;;;;10.38;4.90;;;;;;;;;;5074533;28;20036;-58
2022/08/08 11:40:42;;;;;;;9.23;5.50;;;;;;;;;;5074869;28;20024;-58
2022/08/08 11:43:09;;;;;;;;;;;;;;;;;;5075149;28;20024;-57
2022/08/08 11:45:35;;;;;;;5.57;4.72;;;;;;;;;;5074124;28;19916;-56
2022/08/08 11:48:01;;;;;;;8.60;4.38;;;;;;;;;;5074262;28;20029;-57
2022/08/08 11:50:29;;;;;;;10.30;5.18;;;;;;;;;;5056416;28;20050;-56
2022/08/08 11:52:56;;;;;;;4.95;3.95;;;;;;;;;;5074057;28;20052;-57
2022/08/08 11:55:25;;;;;;;7.53;4.20;;;;;;;;;;5074626;28;20036;-56
2022/08/08 11:58:08;;;;;;;4.82;4.32;;;;;;;;;;5074224;28;20033;-57
2022/08/08 12:00:42;;;;;;;9.10;6.13;;;;;;;;;;5074181;28;20028;-55
2022/08/08 12:03:35;;;;;;;10.25;3.95;;;;;;;;;;5074174;28;20028;-57
2022/08/08 12:06:11;;;;;;;8.00;5.05;;;;;;;;;;5071439;28;20550;-57
2022/08/08 12:08:37;;;;;;;7.55;4.53;;;;;;;;;;5073942;28;20021;-55
2022/08/08 12:11:05;;;;;;;8.52;3.97;;;;;;;;;;5074185;28;20032;-57
2022/08/08 12:13:33;;;;;;;9.55;3.72;;;;;;;;;;5074257;28;20021;-54
2022/08/08 12:16:08;;;;;;;4.45;3.22;;;;;;;;;;5074643;28;20495;-56
2022/08/08 12:18:43;;;;;;;4.93;3.35;;;;;;;;;;5074260;28;20100;-56
2022/08/08 12:21:19;;;;;;;7.05;3.20;;;;;;;;;;5073913;28;20138;-57
2022/08/08 12:23:45;;;;;;;7.30;3.72;;;;;;;;;;5073823;28;20020;-57
2022/08/08 12:26:12;;;;;;;6.70;3.20;;;;;;;;;;5074353;28;20077;-56
2022/08/08 12:28:38;;;;;;;5.07;3.10;;;;;;;;;;5073918;28;20021;-56
2022/08/08 12:31:05;;;;;;;5.90;3.08;;;;;;;;;;5074024;28;20048;-58
2022/08/08 12:33:32;;;;;;;4.55;2.90;;;;;;;;;;5073433;28;20029;-56
2022/08/08 12:35:58;;;;;;;5.93;2.70;;;;;;;;;;5074158;28;20483;-55
2022/08/08 12:38:24;;;;;;;5.07;3.05;;;;;;;;;;5073773;28;20024;-56
2022/08/08 12:40:54;;;;;;;3.20;2.90;;;;;;;;;;5073982;28;20099;-54
2022/08/08 12:43:34;;;;;;;3.97;3.17;;;;;;;;;;5073880;28;20020;-55
2022/08/08 12:46:00;;;;;;;3.25;2.95;;;;;;;;;;5073751;28;20421;-54
2022/08/08 12:48:26;;;;;;;5.88;3.40;;;;;;;;;;5073753;28;20027;-54
2022/08/08 12:50:57;;;;;;;5.25;3.00;;;;;;;;;;5073512;28;20032;-55
2022/08/08 12:53:33;;;;;;;5.25;2.75;;;;;;;;;;5073479;28;20035;-57
2022/08/08 12:55:59;;;;;;;4.63;2.63;;;;;;;;;;5073797;28;20039;-57
2022/08/08 12:58:25;;;;;;;6.63;2.80;;;;;;;;;;5073264;28;20033;-56
2022/08/08 13:00:52;;;;;;;3.28;2.63;;;;;;;;;;5073170;28;20441;-56
2022/08/08 13:03:34;;;;;;;3.50;2.35;;;;;;;;;;5073230;28;20078;-55
2022/08/08 13:06:04;;;;;;;3.75;2.60;;;;;;;;;;5073377;28;20028;-55
2022/08/08 13:08:39;;;;;;;4.30;3.00;;;;;;;;;;5073036;28;20082;-54
2022/08/08 13:11:15;;;;;;;2.70;2.50;;;;;;;;;;5073417;28;20032;-56
2022/08/08 13:13:42;;;;;;;4.25;2.97;;;;;;;;;;5073052;28;20038;-57
2022/08/08 13:16:18;;;;;;;3.42;2.78;;;;;;;;;;5073409;28;20173;-55
2022/08/08 13:18:45;;;;;;;5.35;3.08;;;;;;;;;;5073105;28;20432;-56
2022/08/08 13:21:15;;;;;;;7.47;3.17;;;;;;;;;;5072880;28;20032;-57
2022/08/08 13:23:41;;;;;;;5.75;2.72;;;;;;;;;;5054792;28;20086;-56
2022/08/08 13:26:07;;;;;;;3.97;2.83;;;;;;;;;;5073180;28;20028;-56
2022/08/08 13:28:33;;;;;;;5.05;2.75;;;;;;;;;;5054828;28;20082;-57
2022/08/08 13:31:03;;;;;;;3.33;2.45;;;;;;;;;;5072976;28;20420;-59
2022/08/08 13:33:30;;;;;;;3.30;2.78;;;;;;;;;;5072432;28;20032;-57
2022/08/08 13:35:56;;;;;;;3.25;2.47;;;;;;;;;;5072766;28;20441;-59
2022/08/08 13:38:22;;;;;;;4.60;2.60;;;;;;;;;;5072557;28;20051;-58
2022/08/08 13:40:48;;;;;;;3.58;2.38;;;;;;;;;;5072253;28;20090;-59
2022/08/08 13:43:15;;;;;;;3.35;2.72;;;;;;;;;;5072349;28;20024;-56
2022/08/08 13:45:41;;;;;;;3.15;2.13;;;;;;;;;;5071917;28;20033;-57
2022/08/08 13:48:15;;;;;;;2.28;2.15;;;;;;;;;;5069353;28;20021;-58
2022/08/08 13:50:45;;;;;;;4.32;2.38;;;;;;;;;;5062631;28;20213;-59
2022/08/08 13:53:11;;;;;;;2.42;2.20;;;;;;;;;;5072336;28;20027;-58
2022/08/08 13:55:38;;;;;;;3.00;2.30;;;;;;;;;;5072177;28;20051;-58
2022/08/08 13:58:04;;;;;;;5.45;2.30;;;;;;;;;;5071614;28;20113;-58
2022/08/08 14:00:38;;;;;;;5.85;2.75;;;;;;;;;;5066380;28;20032;-58
2022/08/08 14:03:04;;;;;;;2.97;2.03;;;;;;;;;;5066239;28;20021;-58
2022/08/08 14:05:32;;;;;;;2.63;2.42;;;;;;;;;;5056760;28;20021;-59
2022/08/08 14:07:59;;;;;;;4.57;2.58;;;;;;;;;;5051984;28;20514;-58
2022/08/08 14:10:25;;;;;;;5.20;2.33;;;;;;;;;;5052263;28;20075;-58
2022/08/08 14:12:52;;;;;;;4.05;2.42;;;;;;;;;;5034172;28;20706;-58
2022/08/08 14:15:27;;;;;;;2.67;2.13;;;;;;;;;;5052175;28;20047;-59
2022/08/08 14:17:57;;;;;;;3.17;2.25;;;;;;;;;;5069247;28;20012;-59
2022/08/08 14:20:40;;;;;;;4.45;2.45;;;;;;;;;;5071762;28;20029;-60
2022/08/08 14:23:06;;;;;;;4.70;2.10;;;;;;;;;;5071944;28;20531;-59
2022/08/08 14:25:42;;;;;;;2.17;1.98;;;;;;;;;;5071939;28;20096;-59
2022/08/08 14:28:09;;;;;;;2.40;2.10;;;;;;;;;;5071980;28;20032;-60
2022/08/08 14:30:35;;;;;;;4.25;2.08;;;;;;;;;;5071898;28;20024;-60
2022/08/08 14:33:01;;;;;;;3.97;2.22;;;;;;;;;;5066855;28;20028;-59
2022/08/08 14:35:27;;;;;;;2.60;2.17;;;;;;;;;;5071787;28;20021;-59
2022/08/08 14:37:53;;;;;;;2.83;2.40;;;;;;;;;;5071958;28;20107;-59
2022/08/08 14:40:21;;;;;;;2.42;2.22;;;;;;;;;;5070891;28;20020;-60
2022/08/08 14:42:49;;;;;;;4.03;2.00;;;;;;;;;;5070560;28;20033;-59
2022/08/08 14:45:15;;;;;;;5.47;2.22;;;;;;;;;;5070418;28;20017;-59
2022/08/08 14:47:50;;;;;;;3.30;1.92;;;;;;;;;;5059834;28;20597;-60
2022/08/08 14:50:17;;;;;;;7.90;1.92;;;;;;;;;;5057598;28;20472;-59
2022/08/08 14:52:52;;;;;;;3.38;2.08;;;;;;;;;;5063301;28;20029;-59
2022/08/08 14:55:19;;;;;;;3.08;1.90;;;;;;;;;;5055330;28;20391;-58